sensor_id;sensor_type;location;lat;lon;timestamp;temperature;humidity
62339;DHT22;48368;53.406;6.214;2023-04-15T00:01:23;7.60;99.90
62339;DHT22;48368;53.406;6.214;2023-04-15T00:03:53;7.70;99.90
62339;DHT22;48368;53.406;6.214;2023-04-15T00:06:22;7.60;99.90
62339;DHT22;48368;53.406;6.214;2023-04-15T00:08:48;7.60;99.90
62339;DHT22;48368;53.406;6.214;2023-04-15T00:11:15;7.60;99.90
62339;DHT22;48368;53.406;6.214;2023-04-15T00:13:41;7.60;99.90
62339;DHT22;48368;53.406;6.214;2023-04-15T00:16:08;7.60;99.90
62339;DHT22;48368;53.406;6.214;2023-04-15T00:18:34;7.50;99.90
62339;DHT22;48368;53.406;6.214;2023-04-15T00:21:00;7.50;99.90
62339;DHT22;48368;53.406;6.214;2023-04-15T00:23:26;7.50;99.90
62339;DHT22;48368;53.406;6.214;2023-04-15T00:25:52;7.50;99.90
62339;DHT22;48368;53.406;6.214;2023-04-15T00:28:18;7.60;99.90
62339;DHT22;48368;53.406;6.214;2023-04-15T00:30:43;7.50;99.90
62339;DHT22;48368;53.406;6.214;2023-04-15T00:33:09;7.50;99.90
62339;DHT22;48368;53.406;6.214;2023-04-15T00:35:35;7.50;99.90
62339;DHT22;48368;53.406;6.214;2023-04-15T00:38:02;7.50;99.90
62339;DHT22;48368;53.406;6.214;2023-04-15T00:40:29;7.50;99.90
62339;DHT22;48368;53.406;6.214;2023-04-15T00:42:54;7.50;99.90
62339;DHT22;48368;53.406;6.214;2023-04-15T00:45:20;7.50;99.90
62339;DHT22;48368;53.406;6.214;2023-04-15T00:47:46;7.50;99.90
62339;DHT22;48368;53.406;6.214;2023-04-15T00:50:11;7.50;99.90
62339;DHT22;48368;53.406;6.214;2023-04-15T00:52:38;7.40;99.90
62339;DHT22;48368;53.406;6.214;2023-04-15T00:55:04;7.50;99.90
62339;DHT22;48368;53.406;6.214;2023-04-15T00:57:30;7.40;99.90
62339;DHT22;48368;53.406;6.214;2023-04-15T00:59:57;7.40;99.90
62339;DHT22;48368;53.406;6.214;2023-04-15T01:02:23;7.40;99.90
62339;DHT22;48368;53.406;6.214;2023-04-15T01:04:49;7.40;99.90
62339;DHT22;48368;53.406;6.214;2023-04-15T01:07:14;7.40;99.90
62339;DHT22;48368;53.406;6.214;2023-04-15T01:09:41;7.40;99.90
62339;DHT22;48368;53.406;6.214;2023-04-15T01:12:07;7.40;99.90
62339;DHT22;48368;53.406;6.214;2023-04-15T01:14:34;7.30;99.90
62339;DHT22;48368;53.406;6.214;2023-04-15T01:17:00;7.30;99.90
62339;DHT22;48368;53.406;6.214;2023-04-15T01:19:27;7.30;99.90
62339;DHT22;48368;53.406;6.214;2023-04-15T01:21:53;7.30;99.90
62339;DHT22;48368;53.406;6.214;2023-04-15T01:24:18;7.20;99.90
62339;DHT22;48368;53.406;6.214;2023-04-15T01:26:44;7.30;99.90
62339;DHT22;48368;53.406;6.214;2023-04-15T01:29:11;7.30;99.90
62339;DHT22;48368;53.406;6.214;2023-04-15T01:31:37;7.30;99.90
62339;DHT22;48368;53.406;6.214;2023-04-15T01:34:03;7.20;99.90
62339;DHT22;48368;53.406;6.214;2023-04-15T01:36:29;7.20;99.90
62339;DHT22;48368;53.406;6.214;2023-04-15T01:38:55;7.10;99.90
62339;DHT22;48368;53.406;6.214;2023-04-15T01:41:26;7.20;99.90
62339;DHT22;48368;53.406;6.214;2023-04-15T01:43:52;7.20;99.90
62339;DHT22;48368;53.406;6.214;2023-04-15T01:46:18;7.10;99.90
62339;DHT22;48368;53.406;6.214;2023-04-15T01:48:44;7.10;99.90
62339;DHT22;48368;53.406;6.214;2023-04-15T01:51:10;7.10;99.90
62339;DHT22;48368;53.406;6.214;2023-04-15T01:53:39;7.10;99.90
62339;DHT22;48368;53.406;6.214;2023-04-15T01:56:05;7.10;99.90
62339;DHT22;48368;53.406;6.214;2023-04-15T01:58:31;7.10;99.90
62339;DHT22;48368;53.406;6.214;2023-04-15T02:00:57;7.00;99.90
62339;DHT22;48368;53.406;6.214;2023-04-15T02:03:24;7.00;99.90
62339;DHT22;48368;53.406;6.214;2023-04-15T02:05:49;7.00;99.90
62339;DHT22;48368;53.406;6.214;2023-04-15T02:08:15;7.00;99.90
62339;DHT22;48368;53.406;6.214;2023-04-15T02:10:41;6.90;99.90
62339;DHT22;48368;53.406;6.214;2023-04-15T02:13:07;6.90;99.90
62339;DHT22;48368;53.406;6.214;2023-04-15T02:15:33;6.90;99.90
62339;DHT22;48368;53.406;6.214;2023-04-15T02:17:59;6.90;99.90
62339;DHT22;48368;53.406;6.214;2023-04-15T02:20:26;6.80;99.90
62339;DHT22;48368;53.406;6.214;2023-04-15T02:22:52;6.80;99.90
62339;DHT22;48368;53.406;6.214;2023-04-15T02:25:17;6.80;99.90
62339;DHT22;48368;53.406;6.214;2023-04-15T02:27:44;6.80;99.90
62339;DHT22;48368;53.406;6.214;2023-04-15T02:30:10;6.90;99.90
62339;DHT22;48368;53.406;6.214;2023-04-15T02:32:36;6.80;99.90
62339;DHT22;48368;53.406;6.214;2023-04-15T02:35:03;6.80;99.90
62339;DHT22;48368;53.406;6.214;2023-04-15T02:37:30;6.80;99.90
62339;DHT22;48368;53.406;6.214;2023-04-15T02:39:56;6.80;99.90
62339;DHT22;48368;53.406;6.214;2023-04-15T02:42:22;6.80;99.90
62339;DHT22;48368;53.406;6.214;2023-04-15T02:44:47;6.80;99.90
62339;DHT22;48368;53.406;6.214;2023-04-15T02:47:13;6.80;99.90
62339;DHT22;48368;53.406;6.214;2023-04-15T02:49:40;6.80;99.90
62339;DHT22;48368;53.406;6.214;2023-04-15T02:52:06;6.80;99.90
62339;DHT22;48368;53.406;6.214;2023-04-15T02:54:32;6.90;99.90
62339;DHT22;48368;53.406;6.214;2023-04-15T02:56:58;6.90;99.90
62339;DHT22;48368;53.406;6.214;2023-04-15T02:59:24;6.80;99.90
62339;DHT22;48368;53.406;6.214;2023-04-15T03:01:50;6.80;99.90
62339;DHT22;48368;53.406;6.214;2023-04-15T03:04:15;6.90;99.90
62339;DHT22;48368;53.406;6.214;2023-04-15T03:06:41;6.90;99.90
62339;DHT22;48368;53.406;6.214;2023-04-15T03:09:07;6.90;99.90
62339;DHT22;48368;53.406;6.214;2023-04-15T03:11:32;6.80;99.90
62339;DHT22;48368;53.406;6.214;2023-04-15T03:13:59;6.90;99.90
62339;DHT22;48368;53.406;6.214;2023-04-15T03:16:25;6.80;99.90
62339;DHT22;48368;53.406;6.214;2023-04-15T03:18:50;6.90;99.90
62339;DHT22;48368;53.406;6.214;2023-04-15T03:21:16;6.80;99.90
62339;DHT22;48368;53.406;6.214;2023-04-15T03:23:42;6.90;99.90
62339;DHT22;48368;53.406;6.214;2023-04-15T03:26:08;6.90;99.90
62339;DHT22;48368;53.406;6.214;2023-04-15T03:28:33;6.80;99.90
62339;DHT22;48368;53.406;6.214;2023-04-15T03:30:59;6.90;99.90
62339;DHT22;48368;53.406;6.214;2023-04-15T03:33:25;6.90;99.90
62339;DHT22;48368;53.406;6.214;2023-04-15T03:35:51;6.90;99.90
62339;DHT22;48368;53.406;6.214;2023-04-15T03:38:17;6.80;99.90
62339;DHT22;48368;53.406;6.214;2023-04-15T03:40:45;6.90;99.90
62339;DHT22;48368;53.406;6.214;2023-04-15T03:43:11;6.80;99.90
62339;DHT22;48368;53.406;6.214;2023-04-15T03:45:36;6.90;99.90
62339;DHT22;48368;53.406;6.214;2023-04-15T03:48:02;7.00;99.90
62339;DHT22;48368;53.406;6.214;2023-04-15T03:50:28;6.90;99.90
62339;DHT22;48368;53.406;6.214;2023-04-15T03:52:53;7.00;99.90
62339;DHT22;48368;53.406;6.214;2023-04-15T03:55:20;6.90;99.90
62339;DHT22;48368;53.406;6.214;2023-04-15T03:57:46;6.90;99.90
62339;DHT22;48368;53.406;6.214;2023-04-15T04:00:12;7.00;99.90
62339;DHT22;48368;53.406;6.214;2023-04-15T04:02:37;7.00;99.90
62339;DHT22;48368;53.406;6.214;2023-04-15T04:05:03;6.90;99.90
62339;DHT22;48368;53.406;6.214;2023-04-15T04:07:29;6.90;99.90
62339;DHT22;48368;53.406;6.214;2023-04-15T04:09:56;7.00;99.90
62339;DHT22;48368;53.406;6.214;2023-04-15T04:12:22;6.90;99.90
62339;DHT22;48368;53.406;6.214;2023-04-15T04:14:48;7.00;99.90
62339;DHT22;48368;53.406;6.214;2023-04-15T04:17:13;7.00;99.90
62339;DHT22;48368;53.406;6.214;2023-04-15T04:19:39;7.00;99.90
62339;DHT22;48368;53.406;6.214;2023-04-15T04:22:05;6.90;99.90
62339;DHT22;48368;53.406;6.214;2023-04-15T04:24:31;6.90;99.90
62339;DHT22;48368;53.406;6.214;2023-04-15T04:26:56;7.00;99.90
62339;DHT22;48368;53.406;6.214;2023-04-15T04:29:22;6.90;99.90
62339;DHT22;48368;53.406;6.214;2023-04-15T04:31:48;6.90;99.90
62339;DHT22;48368;53.406;6.214;2023-04-15T04:34:14;6.90;99.90
62339;DHT22;48368;53.406;6.214;2023-04-15T04:36:40;6.90;99.90
62339;DHT22;48368;53.406;6.214;2023-04-15T04:39:06;6.90;99.90
62339;DHT22;48368;53.406;6.214;2023-04-15T04:41:32;6.90;99.90
62339;DHT22;48368;53.406;6.214;2023-04-15T04:43:58;7.00;99.90
62339;DHT22;48368;53.406;6.214;2023-04-15T04:46:24;6.90;99.90
62339;DHT22;48368;53.406;6.214;2023-04-15T04:48:49;7.00;99.90
62339;DHT22;48368;53.406;6.214;2023-04-15T04:51:15;7.00;99.90
62339;DHT22;48368;53.406;6.214;2023-04-15T04:53:47;7.00;99.90
62339;DHT22;48368;53.406;6.214;2023-04-15T04:56:12;7.10;99.90
62339;DHT22;48368;53.406;6.214;2023-04-15T04:58:38;7.10;99.90
62339;DHT22;48368;53.406;6.214;2023-04-15T05:01:04;7.10;99.90
62339;DHT22;48368;53.406;6.214;2023-04-15T05:03:29;7.10;99.90
62339;DHT22;48368;53.406;6.214;2023-04-15T05:05:55;7.20;99.90
62339;DHT22;48368;53.406;6.214;2023-04-15T05:08:21;7.20;99.90
62339;DHT22;48368;53.406;6.214;2023-04-15T05:10:47;7.20;99.90
62339;DHT22;48368;53.406;6.214;2023-04-15T05:13:12;7.20;99.90
62339;DHT22;48368;53.406;6.214;2023-04-15T05:15:38;7.30;99.90
62339;DHT22;48368;53.406;6.214;2023-04-15T05:18:05;7.40;99.90
62339;DHT22;48368;53.406;6.214;2023-04-15T05:20:31;7.40;99.90
62339;DHT22;48368;53.406;6.214;2023-04-15T05:22:57;7.40;99.90
62339;DHT22;48368;53.406;6.214;2023-04-15T05:25:22;7.50;99.90
62339;DHT22;48368;53.406;6.214;2023-04-15T05:27:48;7.60;99.90
62339;DHT22;48368;53.406;6.214;2023-04-15T05:30:13;7.60;99.90
62339;DHT22;48368;53.406;6.214;2023-04-15T05:32:39;7.70;99.90
62339;DHT22;48368;53.406;6.214;2023-04-15T05:35:05;7.70;99.90
62339;DHT22;48368;53.406;6.214;2023-04-15T05:37:32;7.70;99.90
62339;DHT22;48368;53.406;6.214;2023-04-15T05:39:57;7.80;99.90
62339;DHT22;48368;53.406;6.214;2023-04-15T05:42:23;7.80;99.90
62339;DHT22;48368;53.406;6.214;2023-04-15T05:44:49;7.90;99.90
62339;DHT22;48368;53.406;6.214;2023-04-15T05:47:14;8.00;99.90
62339;DHT22;48368;53.406;6.214;2023-04-15T05:49:40;8.00;99.90
62339;DHT22;48368;53.406;6.214;2023-04-15T05:52:06;8.10;99.90
62339;DHT22;48368;53.406;6.214;2023-04-15T05:54:31;8.20;99.90
62339;DHT22;48368;53.406;6.214;2023-04-15T05:56:57;8.30;99.90
62339;DHT22;48368;53.406;6.214;2023-04-15T05:59:23;8.30;99.90
62339;DHT22;48368;53.406;6.214;2023-04-15T06:01:48;8.40;99.90
62339;DHT22;48368;53.406;6.214;2023-04-15T06:04:16;8.50;99.90
62339;DHT22;48368;53.406;6.214;2023-04-15T06:06:41;8.50;99.90
62339;DHT22;48368;53.406;6.214;2023-04-15T06:09:07;8.60;99.90
62339;DHT22;48368;53.406;6.214;2023-04-15T06:11:33;8.70;99.90
62339;DHT22;48368;53.406;6.214;2023-04-15T06:13:58;8.80;99.90
62339;DHT22;48368;53.406;6.214;2023-04-15T06:16:24;9.00;99.90
62339;DHT22;48368;53.406;6.214;2023-04-15T06:18:49;9.10;99.90
62339;DHT22;48368;53.406;6.214;2023-04-15T06:21:15;9.20;99.90
62339;DHT22;48368;53.406;6.214;2023-04-15T06:23:41;9.30;99.90
62339;DHT22;48368;53.406;6.214;2023-04-15T06:26:07;9.30;99.90
62339;DHT22;48368;53.406;6.214;2023-04-15T06:28:32;9.40;99.90
62339;DHT22;48368;53.406;6.214;2023-04-15T06:30:58;9.50;99.90
62339;DHT22;48368;53.406;6.214;2023-04-15T06:33:24;9.50;99.90
62339;DHT22;48368;53.406;6.214;2023-04-15T06:35:50;9.50;99.90
62339;DHT22;48368;53.406;6.214;2023-04-15T06:38:15;9.50;99.90
62339;DHT22;48368;53.406;6.214;2023-04-15T06:40:41;9.50;99.90
62339;DHT22;48368;53.406;6.214;2023-04-15T06:43:07;9.40;99.90
62339;DHT22;48368;53.406;6.214;2023-04-15T06:45:33;9.50;99.90
62339;DHT22;48368;53.406;6.214;2023-04-15T06:47:59;9.50;99.90
62339;DHT22;48368;53.406;6.214;2023-04-15T06:50:25;9.50;99.90
62339;DHT22;48368;53.406;6.214;2023-04-15T06:52:52;9.50;99.90
62339;DHT22;48368;53.406;6.214;2023-04-15T06:55:18;9.50;99.90
62339;DHT22;48368;53.406;6.214;2023-04-15T06:57:44;9.50;99.90
62339;DHT22;48368;53.406;6.214;2023-04-15T07:00:11;9.60;99.90
62339;DHT22;48368;53.406;6.214;2023-04-15T07:02:37;9.60;99.90
62339;DHT22;48368;53.406;6.214;2023-04-15T07:05:03;9.60;99.90
62339;DHT22;48368;53.406;6.214;2023-04-15T07:07:29;9.70;99.90
62339;DHT22;48368;53.406;6.214;2023-04-15T07:09:54;9.70;99.90
62339;DHT22;48368;53.406;6.214;2023-04-15T07:12:20;9.70;99.90
62339;DHT22;48368;53.406;6.214;2023-04-15T07:14:46;9.80;99.90
62339;DHT22;48368;53.406;6.214;2023-04-15T07:17:11;9.80;99.90
62339;DHT22;48368;53.406;6.214;2023-04-15T07:19:37;10.00;99.90
62339;DHT22;48368;53.406;6.214;2023-04-15T07:22:03;10.00;99.90
62339;DHT22;48368;53.406;6.214;2023-04-15T07:24:28;10.10;99.90
62339;DHT22;48368;53.406;6.214;2023-04-15T07:26:54;10.10;99.90
62339;DHT22;48368;53.406;6.214;2023-04-15T07:29:24;10.10;99.90
62339;DHT22;48368;53.406;6.214;2023-04-15T07:31:49;10.10;99.90
62339;DHT22;48368;53.406;6.214;2023-04-15T07:34:16;10.10;99.90
62339;DHT22;48368;53.406;6.214;2023-04-15T07:36:42;10.10;99.90
62339;DHT22;48368;53.406;6.214;2023-04-15T07:39:07;10.20;99.90
62339;DHT22;48368;53.406;6.214;2023-04-15T07:41:33;10.20;99.90
62339;DHT22;48368;53.406;6.214;2023-04-15T07:43:59;10.20;99.90
62339;DHT22;48368;53.406;6.214;2023-04-15T07:46:25;10.30;99.90
62339;DHT22;48368;53.406;6.214;2023-04-15T07:48:52;10.20;99.90
62339;DHT22;48368;53.406;6.214;2023-04-15T07:51:18;10.30;99.90
62339;DHT22;48368;53.406;6.214;2023-04-15T07:53:46;10.40;99.90
62339;DHT22;48368;53.406;6.214;2023-04-15T07:56:15;10.50;99.90
62339;DHT22;48368;53.406;6.214;2023-04-15T07:58:41;10.50;99.90
62339;DHT22;48368;53.406;6.214;2023-04-15T08:01:08;10.60;99.90
62339;DHT22;48368;53.406;6.214;2023-04-15T08:03:33;10.70;99.90
62339;DHT22;48368;53.406;6.214;2023-04-15T08:05:59;10.70;99.90
62339;DHT22;48368;53.406;6.214;2023-04-15T08:08:25;10.60;99.90
62339;DHT22;48368;53.406;6.214;2023-04-15T08:10:50;10.60;99.90
62339;DHT22;48368;53.406;6.214;2023-04-15T08:13:17;10.50;99.90
62339;DHT22;48368;53.406;6.214;2023-04-15T08:15:42;10.60;99.90
62339;DHT22;48368;53.406;6.214;2023-04-15T08:18:08;10.60;99.90
62339;DHT22;48368;53.406;6.214;2023-04-15T08:20:34;10.60;99.90
62339;DHT22;48368;53.406;6.214;2023-04-15T08:22:59;10.60;99.90
62339;DHT22;48368;53.406;6.214;2023-04-15T08:25:25;10.40;99.90
62339;DHT22;48368;53.406;6.214;2023-04-15T08:27:54;10.40;99.90
62339;DHT22;48368;53.406;6.214;2023-04-15T08:30:20;10.30;99.90
62339;DHT22;48368;53.406;6.214;2023-04-15T08:32:46;10.30;99.90
62339;DHT22;48368;53.406;6.214;2023-04-15T08:35:12;10.20;99.90
62339;DHT22;48368;53.406;6.214;2023-04-15T08:37:38;10.10;99.90
62339;DHT22;48368;53.406;6.214;2023-04-15T08:40:04;10.10;99.90
62339;DHT22;48368;53.406;6.214;2023-04-15T08:42:31;10.20;99.90
62339;DHT22;48368;53.406;6.214;2023-04-15T08:44:59;10.00;99.90
62339;DHT22;48368;53.406;6.214;2023-04-15T08:47:29;10.00;99.90
62339;DHT22;48368;53.406;6.214;2023-04-15T08:49:57;10.00;99.90
62339;DHT22;48368;53.406;6.214;2023-04-15T08:52:25;10.10;99.90
62339;DHT22;48368;53.406;6.214;2023-04-15T08:54:54;10.00;99.90
62339;DHT22;48368;53.406;6.214;2023-04-15T08:57:25;10.10;99.90
62339;DHT22;48368;53.406;6.214;2023-04-15T08:59:54;10.10;99.90
62339;DHT22;48368;53.406;6.214;2023-04-15T09:02:20;10.20;99.90
62339;DHT22;48368;53.406;6.214;2023-04-15T09:04:46;10.30;99.90
62339;DHT22;48368;53.406;6.214;2023-04-15T09:07:12;10.40;99.90
62339;DHT22;48368;53.406;6.214;2023-04-15T09:09:37;10.50;99.90
62339;DHT22;48368;53.406;6.214;2023-04-15T09:12:04;10.50;99.90
62339;DHT22;48368;53.406;6.214;2023-04-15T09:14:30;10.60;99.90
62339;DHT22;48368;53.406;6.214;2023-04-15T09:17:00;10.70;99.90
62339;DHT22;48368;53.406;6.214;2023-04-15T09:19:26;10.80;99.90
62339;DHT22;48368;53.406;6.214;2023-04-15T09:21:54;10.90;99.90
62339;DHT22;48368;53.406;6.214;2023-04-15T09:24:21;11.00;99.90
62339;DHT22;48368;53.406;6.214;2023-04-15T09:26:47;11.10;99.90
62339;DHT22;48368;53.406;6.214;2023-04-15T09:29:16;11.10;99.90
62339;DHT22;48368;53.406;6.214;2023-04-15T09:31:43;11.20;99.90
62339;DHT22;48368;53.406;6.214;2023-04-15T09:34:08;11.20;99.90
62339;DHT22;48368;53.406;6.214;2023-04-15T09:36:55;11.30;99.90
62339;DHT22;48368;53.406;6.214;2023-04-15T09:39:21;11.30;99.90
62339;DHT22;48368;53.406;6.214;2023-04-15T09:42:06;11.30;99.90
62339;DHT22;48368;53.406;6.214;2023-04-15T09:44:32;11.20;99.90
62339;DHT22;48368;53.406;6.214;2023-04-15T09:46:57;11.20;99.90
62339;DHT22;48368;53.406;6.214;2023-04-15T09:49:23;11.10;99.90
62339;DHT22;48368;53.406;6.214;2023-04-15T09:51:48;11.10;99.90
62339;DHT22;48368;53.406;6.214;2023-04-15T09:54:19;11.10;99.90
62339;DHT22;48368;53.406;6.214;2023-04-15T09:56:45;11.10;99.90
62339;DHT22;48368;53.406;6.214;2023-04-15T09:59:11;11.10;99.90
62339;DHT22;48368;53.406;6.214;2023-04-15T10:01:37;11.20;99.90
62339;DHT22;48368;53.406;6.214;2023-04-15T10:04:05;11.30;99.90
62339;DHT22;48368;53.406;6.214;2023-04-15T10:06:31;11.20;99.90
62339;DHT22;48368;53.406;6.214;2023-04-15T10:08:58;11.40;99.90
62339;DHT22;48368;53.406;6.214;2023-04-15T10:11:28;11.40;99.90
62339;DHT22;48368;53.406;6.214;2023-04-15T10:13:55;11.40;99.90
62339;DHT22;48368;53.406;6.214;2023-04-15T10:16:23;11.40;99.90
62339;DHT22;48368;53.406;6.214;2023-04-15T10:18:54;11.30;99.90
62339;DHT22;48368;53.406;6.214;2023-04-15T10:21:20;11.40;99.90
62339;DHT22;48368;53.406;6.214;2023-04-15T10:23:48;11.40;99.90
62339;DHT22;48368;53.406;6.214;2023-04-15T10:26:15;11.40;99.90
62339;DHT22;48368;53.406;6.214;2023-04-15T10:28:44;11.40;99.90
62339;DHT22;48368;53.406;6.214;2023-04-15T10:31:12;11.40;99.90
62339;DHT22;48368;53.406;6.214;2023-04-15T10:33:39;11.50;99.90
62339;DHT22;48368;53.406;6.214;2023-04-15T10:36:06;11.40;99.90
62339;DHT22;48368;53.406;6.214;2023-04-15T10:38:33;11.50;99.90
62339;DHT22;48368;53.406;6.214;2023-04-15T10:41:19;11.50;99.90
62339;DHT22;48368;53.406;6.214;2023-04-15T10:44:02;11.50;99.90
62339;DHT22;48368;53.406;6.214;2023-04-15T10:46:41;11.50;99.90
62339;DHT22;48368;53.406;6.214;2023-04-15T10:49:14;11.40;99.90
62339;DHT22;48368;53.406;6.214;2023-04-15T10:51:45;11.40;99.90
62339;DHT22;48368;53.406;6.214;2023-04-15T10:57:20;11.30;99.90
62339;DHT22;48368;53.406;6.214;2023-04-15T10:59:59;11.30;99.90
62339;DHT22;48368;53.406;6.214;2023-04-15T11:05:04;11.20;99.90
62339;DHT22;48368;53.406;6.214;2023-04-15T11:07:38;11.10;99.90
62339;DHT22;48368;53.406;6.214;2023-04-15T11:12:49;11.10;99.90
62339;DHT22;48368;53.406;6.214;2023-04-15T11:17:55;11.00;99.90
62339;DHT22;48368;53.406;6.214;2023-04-15T11:20:21;10.80;99.90
62339;DHT22;48368;53.406;6.214;2023-04-15T11:22:48;10.80;99.90
62339;DHT22;48368;53.406;6.214;2023-04-15T11:25:24;10.80;99.90
62339;DHT22;48368;53.406;6.214;2023-04-15T11:27:52;10.90;99.90
62339;DHT22;48368;53.406;6.214;2023-04-15T11:30:21;11.00;99.90
62339;DHT22;48368;53.406;6.214;2023-04-15T11:32:51;10.90;99.90
62339;DHT22;48368;53.406;6.214;2023-04-15T11:35:17;10.90;99.90
62339;DHT22;48368;53.406;6.214;2023-04-15T11:37:44;10.90;99.90
62339;DHT22;48368;53.406;6.214;2023-04-15T11:40:11;10.80;99.90
62339;DHT22;48368;53.406;6.214;2023-04-15T11:42:37;10.80;99.90
62339;DHT22;48368;53.406;6.214;2023-04-15T11:45:13;10.80;99.90
62339;DHT22;48368;53.406;6.214;2023-04-15T11:47:41;10.70;99.90
62339;DHT22;48368;53.406;6.214;2023-04-15T11:50:20;10.70;99.90
62339;DHT22;48368;53.406;6.214;2023-04-15T11:52:57;10.70;99.90
62339;DHT22;48368;53.406;6.214;2023-04-15T11:55:27;10.70;99.90
62339;DHT22;48368;53.406;6.214;2023-04-15T11:58:07;10.60;99.90
62339;DHT22;48368;53.406;6.214;2023-04-15T12:00:33;10.60;99.90
62339;DHT22;48368;53.406;6.214;2023-04-15T12:03:13;10.50;99.90
62339;DHT22;48368;53.406;6.214;2023-04-15T12:08:57;10.50;99.90
62339;DHT22;48368;53.406;6.214;2023-04-15T12:13:55;10.40;99.90
62339;DHT22;48368;53.406;6.214;2023-04-15T12:16:22;10.50;99.90
62339;DHT22;48368;53.406;6.214;2023-04-15T12:18:58;10.50;99.90
62339;DHT22;48368;53.406;6.214;2023-04-15T12:21:26;10.50;99.90
62339;DHT22;48368;53.406;6.214;2023-04-15T12:23:53;10.40;99.90
62339;DHT22;48368;53.406;6.214;2023-04-15T12:26:26;10.40;99.90
62339;DHT22;48368;53.406;6.214;2023-04-15T12:28:54;10.40;99.90
62339;DHT22;48368;53.406;6.214;2023-04-15T12:31:20;10.40;99.90
62339;DHT22;48368;53.406;6.214;2023-04-15T12:33:47;10.50;99.90
62339;DHT22;48368;53.406;6.214;2023-04-15T12:36:14;10.50;99.90
62339;DHT22;48368;53.406;6.214;2023-04-15T12:38:40;10.60;99.90
62339;DHT22;48368;53.406;6.214;2023-04-15T12:41:05;10.60;99.90
62339;DHT22;48368;53.406;6.214;2023-04-15T12:43:31;10.60;99.90
62339;DHT22;48368;53.406;6.214;2023-04-15T12:45:56;10.60;99.90
62339;DHT22;48368;53.406;6.214;2023-04-15T12:48:22;10.60;99.90
62339;DHT22;48368;53.406;6.214;2023-04-15T12:50:48;10.60;99.90
62339;DHT22;48368;53.406;6.214;2023-04-15T12:53:13;10.60;99.90
62339;DHT22;48368;53.406;6.214;2023-04-15T12:55:39;10.70;99.90
62339;DHT22;48368;53.406;6.214;2023-04-15T12:58:04;10.60;99.90
62339;DHT22;48368;53.406;6.214;2023-04-15T13:00:33;10.60;99.90
62339;DHT22;48368;53.406;6.214;2023-04-15T13:02:59;10.60;99.90
62339;DHT22;48368;53.406;6.214;2023-04-15T13:05:25;10.60;99.90
62339;DHT22;48368;53.406;6.214;2023-04-15T13:07:51;10.60;99.90
62339;DHT22;48368;53.406;6.214;2023-04-15T13:10:16;10.70;99.90
62339;DHT22;48368;53.406;6.214;2023-04-15T13:12:42;10.70;99.90
62339;DHT22;48368;53.406;6.214;2023-04-15T13:15:08;10.70;99.90
62339;DHT22;48368;53.406;6.214;2023-04-15T13:17:36;10.80;99.90
62339;DHT22;48368;53.406;6.214;2023-04-15T13:20:02;10.70;99.90
62339;DHT22;48368;53.406;6.214;2023-04-15T13:22:28;10.70;99.90
62339;DHT22;48368;53.406;6.214;2023-04-15T13:24:54;10.70;99.90
62339;DHT22;48368;53.406;6.214;2023-04-15T13:27:20;10.60;99.90
62339;DHT22;48368;53.406;6.214;2023-04-15T13:29:45;10.70;99.90
62339;DHT22;48368;53.406;6.214;2023-04-15T13:32:11;10.70;99.90
62339;DHT22;48368;53.406;6.214;2023-04-15T13:34:37;10.60;99.90
62339;DHT22;48368;53.406;6.214;2023-04-15T13:37:09;10.70;99.90
62339;DHT22;48368;53.406;6.214;2023-04-15T13:39:34;10.80;99.90
62339;DHT22;48368;53.406;6.214;2023-04-15T13:42:00;10.70;99.90
62339;DHT22;48368;53.406;6.214;2023-04-15T13:44:27;10.70;99.90
62339;DHT22;48368;53.406;6.214;2023-04-15T13:47:07;10.70;99.90
62339;DHT22;48368;53.406;6.214;2023-04-15T13:49:33;10.70;99.90
62339;DHT22;48368;53.406;6.214;2023-04-15T13:52:00;10.70;99.90
62339;DHT22;48368;53.406;6.214;2023-04-15T13:54:25;10.70;99.90
62339;DHT22;48368;53.406;6.214;2023-04-15T13:56:51;10.70;99.90
62339;DHT22;48368;53.406;6.214;2023-04-15T13:59:18;10.70;99.90
62339;DHT22;48368;53.406;6.214;2023-04-15T14:01:44;10.70;99.90
62339;DHT22;48368;53.406;6.214;2023-04-15T14:04:10;10.50;99.90
62339;DHT22;48368;53.406;6.214;2023-04-15T14:06:35;10.50;99.90
62339;DHT22;48368;53.406;6.214;2023-04-15T14:09:01;10.50;99.90
62339;DHT22;48368;53.406;6.214;2023-04-15T14:11:27;10.40;99.90
62339;DHT22;48368;53.406;6.214;2023-04-15T14:13:54;10.40;99.90
62339;DHT22;48368;53.406;6.214;2023-04-15T14:16:19;10.40;99.90
62339;DHT22;48368;53.406;6.214;2023-04-15T14:18:45;10.30;99.90
62339;DHT22;48368;53.406;6.214;2023-04-15T14:21:11;10.30;99.90
62339;DHT22;48368;53.406;6.214;2023-04-15T14:23:37;10.30;99.90
62339;DHT22;48368;53.406;6.214;2023-04-15T14:26:03;10.30;99.90
62339;DHT22;48368;53.406;6.214;2023-04-15T14:28:29;10.20;99.90
62339;DHT22;48368;53.406;6.214;2023-04-15T14:30:54;10.30;99.90
62339;DHT22;48368;53.406;6.214;2023-04-15T14:33:20;10.20;99.90
62339;DHT22;48368;53.406;6.214;2023-04-15T14:35:46;10.20;99.90
62339;DHT22;48368;53.406;6.214;2023-04-15T14:38:11;10.10;99.90
62339;DHT22;48368;53.406;6.214;2023-04-15T14:40:37;10.10;99.90
62339;DHT22;48368;53.406;6.214;2023-04-15T14:43:03;10.10;99.90
62339;DHT22;48368;53.406;6.214;2023-04-15T14:45:29;10.10;99.90
62339;DHT22;48368;53.406;6.214;2023-04-15T14:47:55;10.00;99.90
62339;DHT22;48368;53.406;6.214;2023-04-15T14:50:21;10.00;99.90
62339;DHT22;48368;53.406;6.214;2023-04-15T14:52:48;10.00;99.90
62339;DHT22;48368;53.406;6.214;2023-04-15T14:55:14;9.90;99.90
62339;DHT22;48368;53.406;6.214;2023-04-15T14:57:42;9.90;99.90
62339;DHT22;48368;53.406;6.214;2023-04-15T15:00:09;9.90;99.90
62339;DHT22;48368;53.406;6.214;2023-04-15T15:02:36;9.80;99.90
62339;DHT22;48368;53.406;6.214;2023-04-15T15:05:02;9.80;99.90
62339;DHT22;48368;53.406;6.214;2023-04-15T15:07:28;9.80;99.90
62339;DHT22;48368;53.406;6.214;2023-04-15T15:09:54;9.80;99.90
62339;DHT22;48368;53.406;6.214;2023-04-15T15:12:20;9.70;99.90
62339;DHT22;48368;53.406;6.214;2023-04-15T15:14:47;9.60;99.90
62339;DHT22;48368;53.406;6.214;2023-04-15T15:17:13;9.50;99.90
62339;DHT22;48368;53.406;6.214;2023-04-15T15:19:39;9.50;99.90
62339;DHT22;48368;53.406;6.214;2023-04-15T15:22:04;9.60;99.90
62339;DHT22;48368;53.406;6.214;2023-04-15T15:24:30;9.60;99.90
62339;DHT22;48368;53.406;6.214;2023-04-15T15:26:56;9.50;99.90
62339;DHT22;48368;53.406;6.214;2023-04-15T15:29:22;9.50;99.90
62339;DHT22;48368;53.406;6.214;2023-04-15T15:31:48;9.50;99.90
62339;DHT22;48368;53.406;6.214;2023-04-15T15:34:15;9.50;99.90
62339;DHT22;48368;53.406;6.214;2023-04-15T15:36:41;9.40;99.90
62339;DHT22;48368;53.406;6.214;2023-04-15T15:39:07;9.40;99.90
62339;DHT22;48368;53.406;6.214;2023-04-15T15:41:33;9.30;99.90
62339;DHT22;48368;53.406;6.214;2023-04-15T15:43:58;9.30;99.90
62339;DHT22;48368;53.406;6.214;2023-04-15T15:46:25;9.30;99.90
62339;DHT22;48368;53.406;6.214;2023-04-15T15:48:52;9.30;99.90
62339;DHT22;48368;53.406;6.214;2023-04-15T15:51:19;9.30;99.90
62339;DHT22;48368;53.406;6.214;2023-04-15T15:53:45;9.30;99.90